Sarita Si — MSPM8 — position and weather

sailwx.info

Track history (hours):
 
Tides and Currents Weather Stations Pressure Air Temp Water Temp Dewpoint Dewpoint Depression Visibility Wind Speed Wind Dir Waves Ship Positions

Sarita Si

Last reported at 2017-Sep-20 07:37 UTC. Time now 2017-Sep-23 23:59 UTC.
Position N 40°43' E 014°15'.

Length 40 m; draft 2.5 m.

Type: Pleasure craft. MMSI: 235867000.

Date/timePositionNaut miles runAvg speedWind from/ knotsBaromVisibWave heightAir tempDewpointWater temp
2017-Sep-20 07:37N 40°43' E 014°15'210.6
2017-Sep-20 07:26N 40°41' E 014°16'4 9.1
2017-Sep-20 07:00N 40°37' E 014°16'4 0.3
2017-Sep-19 19:00N 40°33' E 014°15'0 0.0
2017-Sep-19 18:30N 40°33' E 014°15'0 0.0
2017-Sep-18 18:16N 40°33' E 014°15'0 0.0
2017-Sep-18 12:40N 40°33' E 014°15'0 0.0
2017-Sep-18 12:30N 40°33' E 014°15'0 0.0
2017-Sep-18 12:00N 40°33' E 014°15'0 0.0
2017-Sep-18 11:29N 40°33' E 014°15'0 0.0
2017-Sep-18 11:00N 40°33' E 014°15'0 0.0
2017-Sep-18 10:30N 40°33' E 014°15'0 0.0
2017-Sep-18 10:00N 40°33' E 014°15'  
2017-Sep-13 19:26N 43°31' E 009°57'511.6
2017-Sep-13 19:00N 43°35' E 009°54'611.5
2017-Sep-13 18:30N 43°40' E 009°49'611.4
2017-Sep-13 18:01N 43°44' E 009°45'611.1
2017-Sep-13 17:31N 43°49' E 009°41'611.0
2017-Sep-13 17:00N 43°54' E 009°37'511.0
2017-Sep-13 16:30N 43°58' E 009°33'510.9
2017-Sep-13 16:00N 44°03' E 009°28'510.8
2017-Sep-13 15:30N 44°07' E 009°24'610.8
2017-Sep-13 14:57N 44°12' E 009°20'510.6
2017-Sep-13 14:30N 44°16' E 009°16'  
Track history (hours):
 
Tides and Currents Weather Stations Pressure Air Temp Water Temp Dewpoint Dewpoint Depression Visibility Wind Speed Wind Dir Waves Ship Positions

Sarita Si

Last reported at 2017-Sep-20 07:37 UTC. Time now 2017-Sep-23 23:59 UTC.
Position N 40°43' E 014°15'.

Length 40 m; draft 2.5 m.

Type: Pleasure craft. MMSI: 235867000.

Date/timePositionNaut miles runAvg speedWind from/ knotsBaromVisibWave heightAir tempDewpointWater temp
2017-Sep-20 07:37N 40°43' E 014°15'210.6
2017-Sep-20 07:26N 40°41' E 014°16'4 9.1
2017-Sep-20 07:00N 40°37' E 014°16'4 0.3
2017-Sep-19 19:00N 40°33' E 014°15'0 0.0
2017-Sep-19 18:30N 40°33' E 014°15'0 0.0
2017-Sep-18 18:16N 40°33' E 014°15'0 0.0
2017-Sep-18 12:40N 40°33' E 014°15'0 0.0
2017-Sep-18 12:30N 40°33' E 014°15'0 0.0
2017-Sep-18 12:00N 40°33' E 014°15'0 0.0
2017-Sep-18 11:29N 40°33' E 014°15'0 0.0
2017-Sep-18 11:00N 40°33' E 014°15'0 0.0
2017-Sep-18 10:30N 40°33' E 014°15'0 0.0
2017-Sep-18 10:00N 40°33' E 014°15'  
2017-Sep-13 19:26N 43°31' E 009°57'511.6
2017-Sep-13 19:00N 43°35' E 009°54'611.5
2017-Sep-13 18:30N 43°40' E 009°49'611.4
2017-Sep-13 18:01N 43°44' E 009°45'611.1
2017-Sep-13 17:31N 43°49' E 009°41'611.0
2017-Sep-13 17:00N 43°54' E 009°37'511.0
2017-Sep-13 16:30N 43°58' E 009°33'510.9
2017-Sep-13 16:00N 44°03' E 009°28'510.8
2017-Sep-13 15:30N 44°07' E 009°24'610.8
2017-Sep-13 14:57N 44°12' E 009°20'510.6
2017-Sep-13 14:30N 44°16' E 009°16'  

Dump ship's entire track history